Time;durP1;ratioP1;P1;durP2;ratioP2;P2;SDS_P1;SDS_P2;PMS_P1;PMS_P2;Temp;Humidity;BMP_temperature;BMP_pressure;BME280_temperature;BME280_humidity;BME280_pressure;Samples;Min_cycle;Max_cycle;Signal;HPM_P1;HPM_P2
2022/12/25 00:01:30;;;;;;;4.00;3.60;;;;;;;10.79;77.43;95851.69;6066171;23;20192;-83
2022/12/25 00:03:58;;;;;;;4.17;3.33;;;;;;;10.74;77.43;95854.78;6065873;23;20179;-83
2022/12/25 00:06:24;;;;;;;3.67;3.03;;;;;;;10.70;77.72;95850.94;6065861;23;20232;-82
2022/12/25 00:08:51;;;;;;;3.30;3.00;;;;;;;10.70;77.32;95845.81;6064070;23;20323;-83
2022/12/25 00:11:19;;;;;;;3.63;2.60;;;;;;;10.63;77.58;95837.94;6064019;23;20209;-83
2022/12/25 00:13:47;;;;;;;3.30;2.40;;;;;;;10.53;78.49;95834.00;6064479;23;20662;-83
2022/12/25 00:16:17;;;;;;;2.53;2.20;;;;;;;10.49;78.83;95838.69;6064897;23;20179;-82
2022/12/25 00:18:45;;;;;;;1.97;1.87;;;;;;;10.44;79.28;95835.00;6065279;23;20205;-83
2022/12/25 00:21:12;;;;;;;2.47;2.27;;;;;;;10.48;79.06;95813.09;6064434;23;20212;-84
2022/12/25 00:23:38;;;;;;;2.50;2.20;;;;;;;10.48;79.24;95828.56;6066176;23;20176;-83
2022/12/25 00:26:07;;;;;;;2.93;2.33;;;;;;;10.50;79.31;95834.34;6065806;23;20213;-84
2022/12/25 00:28:34;;;;;;;2.30;2.10;;;;;;;10.51;79.18;95841.88;6065143;23;20563;-82
2022/12/25 00:31:04;;;;;;;2.90;2.17;;;;;;;10.50;79.40;95836.91;6065497;23;20208;-83
2022/12/25 00:33:30;;;;;;;2.83;2.10;;;;;;;10.43;80.08;95847.06;6066061;23;20172;-83
2022/12/25 00:35:59;;;;;;;2.47;2.20;;;;;;;10.44;80.21;95846.09;6065948;23;20180;-83
2022/12/25 00:38:26;;;;;;;2.30;2.00;;;;;;;10.45;80.04;95852.06;6065300;23;20647;-83
2022/12/25 00:40:53;;;;;;;2.40;2.20;;;;;;;10.44;80.19;95853.03;6065318;23;20200;-82
2022/12/25 00:43:20;;;;;;;2.40;2.10;;;;;;;10.37;80.63;95853.72;6065034;23;20181;-83
2022/12/25 00:45:54;;;;;;;2.00;1.90;;;;;;;10.34;80.74;95855.81;6065780;23;20184;-83
2022/12/25 00:48:20;;;;;;;2.80;2.10;;;;;;;10.30;81.47;95855.34;6065455;23;20165;-83
2022/12/25 00:50:46;;;;;;;2.90;1.97;;;;;;;10.29;81.43;95850.38;6064491;23;20257;-83
2022/12/25 00:53:14;;;;;;;1.97;1.80;;;;;;;10.24;81.83;95844.91;6065923;23;20244;-84
2022/12/25 00:55:41;;;;;;;2.43;2.20;;;;;;;10.22;81.99;95854.56;6065699;23;20177;-83
2022/12/25 00:58:07;;;;;;;2.10;1.80;;;;;;;10.18;82.59;95856.66;6065311;23;20181;-83
2022/12/25 01:00:33;;;;;;;1.87;1.70;;;;;;;10.12;82.86;95853.94;6065122;23;20204;-83
2022/12/25 01:03:00;;;;;;;1.87;1.70;;;;;;;10.11;83.07;95855.72;6066077;23;20256;-82
2022/12/25 01:05:26;;;;;;;2.17;1.97;;;;;;;10.11;83.02;95849.78;6065478;23;20180;-83
2022/12/25 01:07:52;;;;;;;3.27;1.90;;;;;;;10.13;83.04;95858.94;6065580;23;20231;-83
2022/12/25 01:10:22;;;;;;;1.80;1.60;;;;;;;10.16;82.98;95857.78;6064654;23;20734;-82
2022/12/25 01:12:50;;;;;;;1.87;1.70;;;;;;;10.17;82.89;95852.47;6065691;23;20181;-84
2022/12/25 01:15:17;;;;;;;1.80;1.70;;;;;;;10.13;83.43;95866.66;6066512;23;20240;-83
2022/12/25 01:17:44;;;;;;;1.70;1.57;;;;;;;10.13;83.42;95858.94;6065818;23;20177;-82
2022/12/25 01:20:12;;;;;;;1.63;1.50;;;;;;;10.17;83.24;95857.63;6065753;23;20177;-83
2022/12/25 01:22:39;;;;;;;1.93;1.67;;;;;;;10.14;83.49;95860.53;6065324;23;20161;-83
2022/12/25 01:25:06;;;;;;;1.57;1.47;;;;;;;10.10;83.83;95859.25;6068023;23;20179;-83
2022/12/25 01:27:34;;;;;;;1.60;1.50;;;;;;;10.02;84.25;95842.06;6067230;23;20276;-82
2022/12/25 01:30:01;;;;;;;1.40;1.30;;;;;;;9.98;84.76;95848.53;6067743;23;20173;-83
2022/12/25 01:32:27;;;;;;;1.80;1.40;;;;;;;10.01;84.66;95855.09;6067462;23;20666;-82
2022/12/25 01:34:53;;;;;;;1.47;1.37;;;;;;;10.08;84.43;95861.19;6067730;23;20180;-83
2022/12/25 01:37:20;;;;;;;1.83;1.40;;;;;;;10.10;83.90;95850.72;6068353;23;20212;-83
2022/12/25 01:39:46;;;;;;;1.67;1.50;;;;;;;10.01;84.94;95853.31;6067042;23;20196;-82
2022/12/25 01:42:16;;;;;;;1.67;1.33;;;;;;;10.05;84.77;95846.88;6067184;23;20197;-83
2022/12/25 01:45:22;;;;;;;1.40;1.30;;;;;;;10.11;84.67;95845.44;6067355;23;20200;-84
2022/12/25 01:47:50;;;;;;;1.60;1.50;;;;;;;10.14;84.31;95854.59;6067093;23;20167;-83
2022/12/25 01:50:17;;;;;;;1.50;1.40;;;;;;;10.21;83.90;95851.19;6067336;23;20181;-84
2022/12/25 01:52:44;;;;;;;1.50;1.40;;;;;;;10.26;83.74;95855.84;6066836;23;20200;-83
2022/12/25 01:55:11;;;;;;;1.30;1.20;;;;;;;10.29;83.81;95855.50;6067697;23;20543;-83
2022/12/25 01:57:39;;;;;;;1.37;1.27;;;;;;;10.28;84.14;95857.28;6067224;23;20702;-83
2022/12/25 02:00:08;;;;;;;1.53;1.43;;;;;;;10.24;84.40;95850.06;6066914;23;20184;-83
2022/12/25 02:02:36;;;;;;;1.33;1.17;;;;;;;10.22;84.92;95842.50;6067659;23;20202;-83
2022/12/25 02:05:08;;;;;;;1.67;1.17;;;;;;;10.21;85.48;95833.19;6067117;23;20176;-82
2022/12/25 02:07:40;;;;;;;1.30;1.20;;;;;;;10.22;85.21;95833.97;6066758;23;20774;-84
2022/12/25 02:10:07;;;;;;;1.20;1.10;;;;;;;10.21;85.79;95822.09;6067034;23;20169;-82
2022/12/25 02:12:35;;;;;;;1.23;1.03;;;;;;;10.14;86.63;95829.66;6066236;23;20200;-83
2022/12/25 02:15:03;;;;;;;1.20;0.90;;;;;;;10.16;86.52;95835.44;6067422;23;20181;-83
2022/12/25 02:17:35;;;;;;;1.80;1.27;;;;;;;10.15;86.94;95836.41;6066928;23;20176;-83
2022/12/25 02:20:34;;;;;;;1.23;1.13;;;;;;;10.20;86.32;95834.16;6067113;23;20167;-84
2022/12/25 02:23:13;;;;;;;1.90;1.00;;;;;;;10.21;86.36;95827.22;6067296;23;20191;-83
2022/12/25 02:25:52;;;;;;;2.60;1.10;;;;;;;10.21;86.72;95820.31;6066863;23;20161;-83
2022/12/25 02:28:24;;;;;;;1.77;0.90;;;;;;;10.16;87.24;95821.78;6067070;23;20169;-82
2022/12/25 02:30:56;;;;;;;1.00;0.90;;;;;;;10.15;87.42;95822.75;6066863;23;20666;-84
2022/12/25 02:36:16;;;;;;;1.07;0.97;;;;;;;10.15;87.93;95828.69;6066797;23;20186;-84
2022/12/25 02:41:28;;;;;;;0.90;0.90;;;;;;;10.18;88.28;95830.13;6065198;23;20189;-83
2022/12/25 03:11:59;;;;;;;1.10;0.73;;;;;;;10.39;87.33;95830.38;6066033;23;20203;-82
2022/12/25 03:17:11;;;;;;;0.87;0.80;;;;;;;10.48;86.78;95826.78;6066342;23;20240;-83
2022/12/25 03:27:55;;;;;;;0.70;0.70;;;;;;;10.55;86.22;95824.34;6068027;23;20165;-83
2022/12/25 03:33:17;;;;;;;0.97;0.70;;;;;;;10.61;86.15;95819.28;6066754;23;20220;-84
2022/12/25 03:35:47;;;;;;;0.60;0.60;;;;;;;10.54;86.41;95813.25;6066169;23;20161;-83
2022/12/25 04:36:43;;;;;;;1.20;1.00;;;;;;;10.03;90.07;95804.28;6065290;23;20648;-83
2022/12/25 04:39:11;;;;;;;0.80;0.80;;;;;;;10.03;90.16;95805.09;6065788;23;20180;-82
2022/12/25 04:41:37;;;;;;;0.90;0.83;;;;;;;10.04;90.33;95804.13;6065604;23;20264;-82
2022/12/25 04:44:04;;;;;;;1.10;1.00;;;;;;;10.09;90.00;95806.19;6065675;23;20209;-83
2022/12/25 04:46:30;;;;;;;0.90;0.90;;;;;;;10.11;89.99;95800.88;6065796;23;20192;-83
2022/12/25 04:48:57;;;;;;;1.10;1.00;;;;;;;10.09;90.25;95793.34;6065111;23;20185;-83
2022/12/25 04:51:25;;;;;;;1.10;0.90;;;;;;;10.00;90.48;95786.63;6065039;23;20204;-83
2022/12/25 04:53:53;;;;;;;0.87;0.80;;;;;;;9.98;90.83;95786.00;6065955;23;20782;-82
2022/12/25 04:56:21;;;;;;;0.80;0.80;;;;;;;9.85;91.90;95778.81;6065287;23;20583;-83
2022/12/25 04:58:48;;;;;;;0.97;0.97;;;;;;;9.84;92.06;95784.91;6067095;23;20184;-83
2022/12/25 05:01:15;;;;;;;0.80;0.80;;;;;;;9.92;91.74;95784.09;6069666;23;20197;-84
2022/12/25 05:03:41;;;;;;;1.00;0.90;;;;;;;10.01;90.97;95795.94;6070719;23;20232;-83
2022/12/25 05:06:08;;;;;;;0.90;0.90;;;;;;;10.01;91.00;95801.06;6070264;23;20181;-84
2022/12/25 05:08:36;;;;;;;1.20;1.10;;;;;;;9.94;91.10;95792.44;6070828;23;20177;-84
2022/12/25 05:11:06;;;;;;;2.17;1.30;;;;;;;9.95;91.41;95789.69;6070753;23;20204;-82
2022/12/25 05:13:33;;;;;;;1.20;1.10;;;;;;;9.90;91.70;95784.25;6070968;23;20180;-83
2022/12/25 05:16:00;;;;;;;1.03;0.97;;;;;;;9.84;92.22;95784.09;6071349;23;20180;-84
2022/12/25 05:18:26;;;;;;;1.10;1.00;;;;;;;9.81;92.41;95798.13;6069550;23;20222;-84
2022/12/25 05:20:53;;;;;;;3.17;1.07;;;;;;;9.83;92.50;95798.72;6069611;23;20215;-84
2022/12/25 05:23:20;;;;;;;2.53;1.50;;;;;;;9.86;92.05;95795.03;6070971;23;20173;-84
2022/12/25 05:25:46;;;;;;;1.57;1.10;;;;;;;9.90;91.84;95793.75;6070877;23;20232;-84
2022/12/25 05:28:13;;;;;;;1.30;1.20;;;;;;;9.91;92.07;95782.47;6069752;23;20180;-84
2022/12/25 05:30:41;;;;;;;1.27;1.17;;;;;;;9.98;91.52;95789.38;6071845;23;20224;-84
2022/12/25 05:33:07;;;;;;;1.93;0.90;;;;;;;10.04;90.92;95787.88;6070663;23;20279;-84
2022/12/25 05:35:36;;;;;;;1.50;1.00;;;;;;;10.09;90.33;95790.75;6070995;23;20228;-84
2022/12/25 05:38:03;;;;;;;1.30;1.20;;;;;;;10.10;90.34;95792.38;6070764;23;20230;-84
2022/12/25 05:40:29;;;;;;;1.30;1.20;;;;;;;10.11;90.12;95791.41;6070158;23;20243;-84
2022/12/25 05:42:55;;;;;;;1.03;1.00;;;;;;;10.09;90.63;95785.63;6070442;23;20176;-84
2022/12/25 05:45:22;;;;;;;1.30;1.10;;;;;;;10.10;90.33;95791.56;6070479;23;20518;-84
2022/12/25 05:47:50;;;;;;;1.10;1.00;;;;;;;10.04;90.74;95788.69;6070584;23;20654;-83
2022/12/25 05:50:16;;;;;;;0.90;0.90;;;;;;;10.07;90.67;95792.69;6069311;23;20181;-83
2022/12/25 05:52:43;;;;;;;1.70;1.30;;;;;;;10.07;90.72;95784.19;6070174;23;20197;-83
2022/12/25 05:55:09;;;;;;;0.90;0.90;;;;;;;10.09;90.55;95780.47;6069824;23;20180;-84
2022/12/25 05:57:36;;;;;;;1.30;1.20;;;;;;;10.12;90.41;95779.34;6068974;23;20696;-84
2022/12/25 06:00:03;;;;;;;1.30;1.20;;;;;;;10.10;90.54;95781.28;6069331;23;20173;-82
2022/12/25 06:02:29;;;;;;;1.43;1.03;;;;;;;10.09;90.77;95790.75;6066904;23;20200;-84
2022/12/25 06:04:57;;;;;;;1.23;1.13;;;;;;;10.09;90.69;95775.31;6069850;23;20190;-83
2022/12/25 06:07:23;;;;;;;1.30;1.20;;;;;;;10.06;90.53;95780.81;6070105;23;20177;-83
2022/12/25 06:09:50;;;;;;;1.07;0.97;;;;;;;10.04;91.15;95775.03;6068174;23;20184;-84
2022/12/25 06:12:16;;;;;;;1.53;1.30;;;;;;;10.08;90.89;95788.34;6068268;23;20208;-84
2022/12/25 06:14:43;;;;;;;1.30;1.20;;;;;;;10.05;90.67;95781.78;6068180;23;20720;-83
2022/12/25 06:17:09;;;;;;;1.50;1.20;;;;;;;10.03;91.14;95779.38;6068113;23;20177;-83
2022/12/25 06:19:36;;;;;;;1.97;1.40;;;;;;;10.02;91.17;95780.34;6067138;23;20201;-84
2022/12/25 06:22:03;;;;;;;1.73;1.30;;;;;;;10.03;91.00;95781.94;6067345;23;20209;-83
2022/12/25 06:24:30;;;;;;;1.10;1.00;;;;;;;10.04;90.95;95773.25;6068112;23;20177;-84
2022/12/25 06:26:56;;;;;;;1.40;1.30;;;;;;;10.04;90.99;95770.69;6068009;23;20180;-83
2022/12/25 06:29:23;;;;;;;1.27;1.13;;;;;;;10.03;90.85;95763.94;6068310;23;20181;-84
2022/12/25 06:31:49;;;;;;;1.50;1.40;;;;;;;10.02;91.48;95767.47;6067675;23;20619;-83
2022/12/25 06:34:16;;;;;;;1.53;1.30;;;;;;;10.04;91.06;95764.72;6067491;23;20209;-83
2022/12/25 06:36:42;;;;;;;2.07;1.20;;;;;;;10.04;91.11;95769.88;6067131;23;20180;-82
2022/12/25 06:39:10;;;;;;;1.83;1.20;;;;;;;9.98;91.57;95768.00;6067230;23;20181;-84
2022/12/25 06:41:37;;;;;;;1.60;1.07;;;;;;;9.89;92.16;95764.66;6068168;23;20200;-84
2022/12/25 06:44:03;;;;;;;1.20;1.10;;;;;;;9.91;92.10;95775.56;6068571;23;20180;-83
2022/12/25 06:46:30;;;;;;;2.20;1.30;;;;;;;9.87;92.44;95773.50;6068058;23;20177;-82
2022/12/25 06:49:00;;;;;;;1.53;1.20;;;;;;;9.81;93.21;95767.28;6067830;23;20183;-83
2022/12/25 06:51:28;;;;;;;1.20;1.10;;;;;;;9.86;92.87;95769.31;6068308;23;20201;-83
2022/12/25 06:53:55;;;;;;;1.20;1.10;;;;;;;9.86;92.74;95774.47;6068467;23;20208;-84
2022/12/25 06:56:25;;;;;;;1.50;1.40;;;;;;;9.89;92.70;95771.56;6068099;23;20864;-84
2022/12/25 06:58:54;;;;;;;1.57;1.37;;;;;;;9.93;92.30;95776.22;6068465;23;20181;-84
2022/12/25 07:01:24;;;;;;;1.20;1.10;;;;;;;9.97;91.96;95779.25;6068170;23;20228;-84
2022/12/25 07:03:53;;;;;;;1.00;1.00;;;;;;;9.98;91.83;95778.28;6069217;23;20180;-84
2022/12/25 07:06:19;;;;;;;1.30;1.20;;;;;;;9.94;92.24;95780.38;6069687;23;20185;-84
2022/12/25 07:08:45;;;;;;;1.30;1.20;;;;;;;9.95;92.15;95774.28;6069293;23;20185;-83
2022/12/25 07:11:12;;;;;;;1.33;1.20;;;;;;;9.90;92.93;95770.59;6068963;23;20208;-84
2022/12/25 07:13:40;;;;;;;1.50;1.10;;;;;;;9.98;100.00;95770.56;6068414;23;20280;-86
2022/12/25 07:16:07;;;;;;;1.30;1.20;;;;;;;10.22;99.71;95772.22;6065531;23;20184;-84
2022/12/25 07:18:34;;;;;;;1.30;1.10;;;;;;;10.28;92.97;95763.84;6062160;23;20180;-83
2022/12/25 07:21:08;;;;;;;1.17;1.07;;;;;;;10.14;92.31;95762.75;6066494;23;20212;-83
2022/12/25 07:23:34;;;;;;;1.77;1.20;;;;;;;10.11;92.48;95768.25;6067585;23;20499;-83
2022/12/25 07:26:02;;;;;;;1.37;1.20;;;;;;;10.00;93.22;95763.50;6066399;23;20172;-84
2022/12/25 07:28:29;;;;;;;1.50;1.00;;;;;;;10.01;93.10;95776.16;6065719;23;20185;-83
2022/12/25 07:31:02;;;;;;;1.10;1.00;;;;;;;10.05;93.02;95771.47;6066862;23;20201;-84
2022/12/25 07:33:29;;;;;;;1.20;1.10;;;;;;;10.06;93.07;95773.09;6065966;23;20189;-83
2022/12/25 07:35:55;;;;;;;1.30;1.20;;;;;;;10.04;92.86;95764.72;6065850;23;20189;-83
2022/12/25 07:38:22;;;;;;;1.17;1.07;;;;;;;10.04;93.30;95765.53;6066113;23;20192;-82
2022/12/25 07:40:48;;;;;;;1.23;1.00;;;;;;;10.06;93.13;95770.50;6065537;23;20207;-84
2022/12/25 07:43:15;;;;;;;1.30;1.10;;;;;;;10.09;93.15;95769.38;6066541;23;20180;-82
2022/12/25 07:45:41;;;;;;;1.00;1.00;;;;;;;10.10;93.21;95771.78;6068048;23;20180;-84
2022/12/25 07:48:09;;;;;;;1.20;1.10;;;;;;;10.07;93.53;95758.44;6066366;23;20188;-83
2022/12/25 07:50:35;;;;;;;1.30;1.20;;;;;;;10.10;93.72;95760.69;6066335;23;20180;-83
2022/12/25 07:53:02;;;;;;;1.00;1.00;;;;;;;10.19;93.18;95773.38;6066862;23;20200;-84
2022/12/25 07:55:28;;;;;;;1.17;1.00;;;;;;;10.20;92.98;95758.75;6066532;23;20567;-83
2022/12/25 07:57:55;;;;;;;1.17;0.90;;;;;;;10.24;93.10;95754.84;6067833;23;20481;-82
2022/12/25 08:00:21;;;;;;;1.30;1.20;;;;;;;10.31;92.85;95760.94;6067165;23;20188;-84
2022/12/25 08:02:49;;;;;;;2.90;1.20;;;;;;;10.35;92.69;95764.78;6066148;23;20177;-82
2022/12/25 08:05:17;;;;;;;1.30;1.10;;;;;;;10.49;92.59;95771.75;6066168;23;20188;-84
2022/12/25 08:07:43;;;;;;;1.43;1.20;;;;;;;10.72;91.18;95764.03;6066374;23;20177;-83
2022/12/25 08:10:10;;;;;;;1.23;1.00;;;;;;;10.85;89.76;95764.25;6066754;23;20563;-85
2022/12/25 08:12:37;;;;;;;1.17;1.00;;;;;;;10.88;89.38;95750.22;6065876;23;20204;-83
2022/12/25 08:15:04;;;;;;;1.57;1.20;;;;;;;10.98;88.51;95748.19;6067621;23;20185;-84
2022/12/25 08:17:30;;;;;;;1.20;1.10;;;;;;;11.15;88.54;95751.44;6066438;23;20180;-84
2022/12/25 08:19:56;;;;;;;1.33;1.23;;;;;;;11.37;86.79;95750.53;6067387;23;20176;-84
2022/12/25 08:22:24;;;;;;;0.93;0.93;;;;;;;11.61;86.17;95760.59;6066018;23;20216;-84
2022/12/25 08:24:50;;;;;;;2.27;1.10;;;;;;;11.79;84.95;95756.88;6066829;23;20184;-85
2022/12/25 08:27:17;;;;;;;1.30;0.90;;;;;;;11.83;83.52;95758.13;6067988;23;20181;-83
2022/12/25 08:29:43;;;;;;;1.00;1.00;;;;;;;11.95;83.35;95762.66;6066996;23;20177;-83
2022/12/25 08:32:10;;;;;;;1.00;1.00;;;;;;;11.99;83.00;95763.88;6066878;23;20200;-84
2022/12/25 08:34:37;;;;;;;1.17;1.07;;;;;;;11.95;82.52;95754.09;6067347;23;20184;-84
2022/12/25 08:37:04;;;;;;;0.90;0.90;;;;;;;11.75;82.21;95762.38;6068209;23;20559;-84
2022/12/25 08:39:31;;;;;;;1.03;0.93;;;;;;;11.71;83.05;95762.94;6067547;23;20183;-84
2022/12/25 08:41:58;;;;;;;1.33;1.10;;;;;;;11.58;83.57;95753.22;6068769;23;20219;-85
2022/12/25 08:44:24;;;;;;;1.10;1.00;;;;;;;11.55;83.99;95756.16;6069460;23;20177;-84
2022/12/25 08:46:51;;;;;;;1.07;1.07;;;;;;;11.53;84.19;95749.59;6067692;23;20192;-84
2022/12/25 08:49:18;;;;;;;0.97;0.97;;;;;;;11.59;84.04;95746.28;6067600;23;20555;-84
2022/12/25 08:51:45;;;;;;;1.10;1.00;;;;;;;11.70;83.84;95751.81;6067630;23;20196;-84
2022/12/25 08:54:11;;;;;;;1.20;1.10;;;;;;;11.82;82.73;95747.00;6067451;23;20212;-85
2022/12/25 08:56:39;;;;;;;1.27;0.90;;;;;;;11.86;82.22;95743.09;6067918;23;20188;-84
2022/12/25 08:59:05;;;;;;;1.10;1.00;;;;;;;11.96;82.35;95740.22;6067677;23;20185;-84
2022/12/25 09:01:32;;;;;;;1.20;1.10;;;;;;;12.07;82.21;95738.00;6066382;23;20208;-84
2022/12/25 09:03:58;;;;;;;1.07;1.00;;;;;;;12.16;80.97;95743.81;6067055;23;20177;-85
2022/12/25 09:06:25;;;;;;;1.20;1.10;;;;;;;12.19;80.92;95730.56;6066613;23;20200;-85
2022/12/25 09:08:51;;;;;;;0.90;0.90;;;;;;;12.30;80.87;95737.84;6066481;23;20209;-83
2022/12/25 09:11:19;;;;;;;1.70;1.07;;;;;;;12.44;79.98;95723.28;6067083;23;20197;-84
2022/12/25 09:13:47;;;;;;;1.27;1.17;;;;;;;12.65;79.29;95722.47;6067482;23;20697;-83
2022/12/25 09:16:15;;;;;;;1.63;1.20;;;;;;;12.84;78.96;95721.84;6067585;23;20184;-84
2022/12/25 09:18:42;;;;;;;1.20;1.10;;;;;;;13.13;77.87;95726.81;6067176;23;20181;-84
2022/12/25 09:21:11;;;;;;;1.20;1.10;;;;;;;13.42;75.45;95731.03;6066659;23;20715;-84
2022/12/25 09:23:37;;;;;;;1.23;1.13;;;;;;;13.50;74.40;95727.47;6066557;23;20173;-83
2022/12/25 09:26:06;;;;;;;1.20;1.10;;;;;;;13.55;73.72;95719.13;6067217;23;20631;-85
2022/12/25 09:28:33;;;;;;;1.40;1.17;;;;;;;13.71;73.69;95714.44;6066695;23;20181;-84
2022/12/25 09:31:01;;;;;;;26.23;3.33;;;;;;;13.97;73.54;95718.13;6061952;23;20209;-88
2022/12/25 09:33:28;;;;;;;1.27;1.07;;;;;;;14.07;72.23;95719.34;6065878;23;20256;-84
2022/12/25 09:35:55;;;;;;;19.17;2.43;;;;;;;14.18;71.18;95721.38;6067328;23;20181;-86
2022/12/25 09:38:22;;;;;;;1.77;1.13;;;;;;;14.22;70.84;95716.63;6067885;23;20196;-85
2022/12/25 09:40:57;;;;;;;36.97;3.20;;;;;;;14.21;70.16;95720.19;6069431;23;20193;-85
2022/12/25 09:43:26;;;;;;;4.75;1.20;;;;;;;14.29;70.69;95714.03;6067526;23;20168;-86
2022/12/25 09:45:52;;;;;;;1.40;1.10;;;;;;;14.37;69.85;95709.47;6070152;23;20260;-85
2022/12/25 09:48:20;;;;;;;4.47;1.08;;;;;;;14.43;73.15;95706.09;6068123;23;20173;-84
2022/12/25 09:50:51;;;;;;;2.17;1.20;;;;;;;14.38;68.70;95697.31;6069632;23;20203;-85
2022/12/25 09:53:21;;;;;;;1.63;1.20;;;;;;;14.15;68.97;95695.88;6070305;23;20185;-83
2022/12/25 09:55:53;;;;;;;2.13;1.35;;;;;;;14.15;69.20;95692.50;6068205;23;20691;-83
2022/12/25 09:58:19;;;;;;;4.40;1.20;;;;;;;14.32;69.18;95696.31;6068137;23;20165;-83
2022/12/25 10:00:53;;;;;;;1.30;1.20;;;;;;;14.39;69.15;95704.09;6068526;23;20208;-83
2022/12/25 10:03:58;;;;;;;1.35;1.25;;;;;;;14.52;67.79;95704.94;6061921;23;20161;-84
2022/12/25 10:06:32;;;;;;;2.03;1.45;;;;;;;14.64;67.63;95707.72;6058813;23;20187;-87
2022/12/25 10:09:22;;;;;;;1.20;1.10;;;;;;;14.72;67.49;95704.16;6062659;23;20171;-87
2022/12/25 10:12:00;;;;;;;1.48;1.20;;;;;;;14.77;66.59;95702.56;6058791;23;20197;-88
2022/12/25 10:14:34;;;;;;;1.30;1.20;;;;;;;14.74;66.38;95702.16;6064270;23;20523;-85
2022/12/25 10:17:19;;;;;;;0.95;0.95;;;;;;;14.62;66.93;95701.19;6068397;23;20167;-85
2022/12/25 10:19:51;;;;;;;1.42;1.20;;;;;;;14.75;67.74;95703.75;6071058;23;20164;-84
2022/12/25 10:22:25;;;;;;;1.25;1.10;;;;;;;14.78;66.46;95698.97;6069250;23;20216;-84
2022/12/25 10:24:54;;;;;;;1.40;1.30;;;;;;;14.80;65.92;95696.19;6072692;23;20492;-85
2022/12/25 10:27:28;;;;;;;1.20;1.10;;;;;;;14.80;66.22;95697.00;6072739;23;20180;-85
2022/12/25 10:29:55;;;;;;;1.40;1.30;;;;;;;14.77;67.00;95692.19;6071659;23;20161;-85
2022/12/25 10:32:22;;;;;;;2.47;0.90;;;;;;;14.74;66.58;95687.41;6071275;23;20220;-85
2022/12/25 10:34:48;;;;;;;1.40;1.30;;;;;;;14.71;67.16;95681.81;6074259;23;20873;-84
2022/12/25 10:37:16;;;;;;;1.17;1.08;;;;;;;14.81;67.36;95677.84;6071627;23;20184;-85
2022/12/25 10:39:44;;;;;;;1.20;1.10;;;;;;;14.94;66.81;95665.88;6072000;23;20187;-84
2022/12/25 10:42:28;;;;;;;1.25;1.13;;;;;;;14.93;66.24;95659.88;6072010;23;20197;-85
2022/12/25 10:44:59;;;;;;;1.20;1.10;;;;;;;14.98;67.08;95664.47;6073280;23;20165;-84
2022/12/25 10:47:29;;;;;;;1.35;1.00;;;;;;;15.00;66.50;95658.09;6072965;23;20166;-85
2022/12/25 10:49:57;;;;;;;0.93;0.93;;;;;;;15.09;66.29;95658.66;6071026;23;20171;-85
2022/12/25 10:52:26;;;;;;;1.45;1.17;;;;;;;14.98;65.70;95649.72;6072733;23;20261;-85
2022/12/25 10:54:55;;;;;;;1.10;1.00;;;;;;;14.98;66.36;95644.53;6070657;23;20211;-85
2022/12/25 10:57:23;;;;;;;1.60;1.00;;;;;;;14.97;66.17;95642.94;6070511;23;20200;-85
2022/12/25 10:59:54;;;;;;;2.38;1.25;;;;;;;15.14;66.04;95638.09;6070893;23;20185;-84
2022/12/25 11:02:24;;;;;;;1.48;1.10;;;;;;;15.18;66.60;95634.91;6069972;23;20223;-85
2022/12/25 11:05:00;;;;;;;1.40;1.10;;;;;;;15.27;66.32;95643.25;6072506;23;20165;-84
2022/12/25 11:07:26;;;;;;;1.38;1.17;;;;;;;15.31;66.07;95644.44;6071049;23;20169;-85
2022/12/25 11:09:56;;;;;;;1.40;1.30;;;;;;;15.38;66.15;95647.81;6071165;23;20181;-85
2022/12/25 11:12:30;;;;;;;1.30;1.20;;;;;;;15.39;65.92;95651.22;6070627;23;20201;-84
2022/12/25 11:14:59;;;;;;;1.08;1.00;;;;;;;15.44;65.49;95638.41;6071290;23;20192;-84
2022/12/25 11:17:26;;;;;;;1.27;1.17;;;;;;;15.51;65.56;95634.00;6068386;23;20173;-83
2022/12/25 11:19:55;;;;;;;1.42;1.33;;;;;;;15.40;66.01;95632.81;6071036;23;20173;-85
2022/12/25 11:22:22;;;;;;;1.58;1.35;;;;;;;15.29;65.79;95625.69;6069498;23;20761;-85
2022/12/25 11:24:48;;;;;;;1.35;1.25;;;;;;;15.24;65.97;95630.69;6070816;23;20173;-85
2022/12/25 11:27:22;;;;;;;1.20;1.10;;;;;;;15.32;66.16;95627.88;6070971;23;20259;-85
2022/12/25 11:29:51;;;;;;;1.50;1.40;;;;;;;15.34;66.60;95618.09;6070236;23;20624;-84
2022/12/25 11:32:22;;;;;;;3.00;1.00;;;;;;;15.38;66.24;95614.09;6069945;23;20208;-85
2022/12/25 11:34:50;;;;;;;1.40;1.30;;;;;;;15.38;66.43;95616.69;6070775;23;20181;-85
2022/12/25 11:37:21;;;;;;;1.33;1.20;;;;;;;15.35;66.70;95614.50;6070156;23;20639;-85
2022/12/25 11:39:48;;;;;;;1.27;1.17;;;;;;;15.42;66.98;95610.06;6070286;23;20169;-85
2022/12/25 11:42:24;;;;;;;1.90;1.30;;;;;;;15.56;66.17;95604.88;6069588;23;20200;-85
2022/12/25 11:44:55;;;;;;;1.75;1.40;;;;;;;15.53;66.39;95606.06;6069385;23;20160;-84
2022/12/25 11:47:26;;;;;;;1.25;1.15;;;;;;;15.53;65.18;95593.88;6071255;23;20165;-85
2022/12/25 11:49:59;;;;;;;1.90;1.40;;;;;;;15.57;66.42;95598.69;6069106;23;20166;-85
2022/12/25 11:52:29;;;;;;;1.35;1.25;;;;;;;15.75;66.52;95598.78;6070199;23;20678;-85
2022/12/25 11:55:01;;;;;;;1.05;1.00;;;;;;;15.79;65.06;95579.97;6070512;23;20181;-85
2022/12/25 11:57:33;;;;;;;1.20;1.10;;;;;;;15.75;64.85;95585.81;6069652;23;20172;-84
2022/12/25 12:00:05;;;;;;;2.30;1.50;;;;;;;15.73;65.50;95582.63;6070851;23;20244;-85
2022/12/25 12:02:38;;;;;;;2.60;1.65;;;;;;;15.75;64.44;95573.63;6069195;23;20208;-85
2022/12/25 12:05:15;;;;;;;3.35;1.67;;;;;;;15.69;64.25;95577.03;6070154;23;20165;-85
2022/12/25 12:07:52;;;;;;;1.45;1.30;;;;;;;15.69;64.56;95564.06;6068498;23;20161;-85
2022/12/25 12:10:23;;;;;;;1.67;1.40;;;;;;;15.82;65.07;95569.16;6069649;23;20172;-84
2022/12/25 12:12:57;;;;;;;1.30;1.20;;;;;;;15.87;64.23;95563.34;6068500;23;20188;-84
2022/12/25 12:15:28;;;;;;;1.75;1.25;;;;;;;15.86;64.73;95564.38;6068274;23;20188;-85
2022/12/25 12:18:06;;;;;;;1.23;1.13;;;;;;;15.95;64.13;95564.91;6068161;23;20161;-85
2022/12/25 12:20:35;;;;;;;1.33;1.20;;;;;;;16.10;63.97;95558.41;6068115;23;20184;-85
2022/12/25 12:23:10;;;;;;;1.52;1.20;;;;;;;16.22;63.47;95561.09;6068557;23;20165;-85
2022/12/25 12:25:39;;;;;;;1.30;1.20;;;;;;;16.28;63.18;95556.88;6068030;23;20161;-85
2022/12/25 12:28:14;;;;;;;1.50;1.23;;;;;;;16.23;62.59;95553.09;6068273;23;20192;-85
2022/12/25 12:30:40;;;;;;;1.20;1.10;;;;;;;16.18;63.06;95552.13;6067422;23;20561;-84
2022/12/25 12:33:17;;;;;;;1.30;1.20;;;;;;;16.02;63.26;95547.47;6068370;23;20505;-84
2022/12/25 12:35:44;;;;;;;2.72;1.23;;;;;;;16.05;63.43;95541.84;6067993;23;20188;-85
2022/12/25 12:38:19;;;;;;;1.23;1.00;;;;;;;16.12;63.27;95532.22;6068135;23;20185;-85
2022/12/25 12:40:53;;;;;;;1.17;1.00;;;;;;;15.95;62.90;95520.78;6068056;23;20706;-85
2022/12/25 12:43:30;;;;;;;1.65;1.10;;;;;;;15.82;63.47;95527.63;6068657;23;20730;-85
2022/12/25 12:46:01;;;;;;;0.98;0.98;;;;;;;15.68;64.00;95526.13;6068006;23;20168;-85
2022/12/25 12:48:29;;;;;;;1.20;1.10;;;;;;;15.65;64.50;95529.13;6067769;23;20224;-85
2022/12/25 12:51:03;;;;;;;1.50;1.10;;;;;;;15.73;64.52;95525.50;6068820;23;20307;-85
2022/12/25 12:53:31;;;;;;;1.25;1.15;;;;;;;15.83;63.66;95523.22;6068329;23;20184;-86
2022/12/25 12:56:10;;;;;;;1.30;1.20;;;;;;;15.86;63.34;95510.63;6068715;23;20187;-85
2022/12/25 12:58:45;;;;;;;1.08;1.00;;;;;;;15.92;63.77;95524.59;6067490;23;20643;-85
2022/12/25 13:01:18;;;;;;;1.88;1.00;;;;;;;15.97;63.29;95513.56;6068133;23;20516;-85
2022/12/25 13:04:05;;;;;;;1.30;1.20;;;;;;;16.06;63.00;95512.28;6066991;23;20166;-85
2022/12/25 13:06:39;;;;;;;0.90;0.90;;;;;;;16.16;62.90;95515.97;6067949;23;20621;-85
2022/12/25 13:09:18;;;;;;;1.13;1.02;;;;;;;16.25;62.88;95513.91;6067839;23;20171;-85
2022/12/25 13:11:45;;;;;;;1.40;1.30;;;;;;;16.24;62.19;95507.94;6066174;23;20200;-86
2022/12/25 13:14:15;;;;;;;1.90;1.58;;;;;;;16.18;62.16;95513.16;6068123;23;20201;-85
2022/12/25 13:16:45;;;;;;;1.63;1.40;;;;;;;16.11;62.40;95518.44;6068652;23;20248;-85
2022/12/25 13:19:14;;;;;;;1.15;1.00;;;;;;;16.14;61.92;95519.81;6067962;23;20181;-85
2022/12/25 13:21:51;;;;;;;1.02;1.00;;;;;;;16.28;62.38;95520.50;6069424;23;20216;-85
2022/12/25 13:24:20;;;;;;;0.90;0.90;;;;;;;16.38;61.17;95519.00;6070526;23;20157;-84
2022/12/25 13:26:47;;;;;;;1.75;1.02;;;;;;;16.48;61.08;95516.72;6070358;23;20184;-84
2022/12/25 13:29:23;;;;;;;1.73;1.30;;;;;;;16.35;60.93;95501.25;6070401;23;20181;-86